Login to view products.  
Thursday, February 22, 2018 (02:26 UTC)
Ras Al Khaimah International Airport
ICAO Code: OMRK
IATA Code: RKT
  • METAR OMRK 220200Z 20004KT 5000 HZ NSC 14/12 Q1011 A2987=
  • TAF OMRK 212303Z 2200/2306 18005KT 6000 NSC PROB30 2200/2205 3000 HZ BECMG 2208/2210 30010KT BECMG 2214/2216 18005KT=